Terminal Aerodrome Forecast
Issued by NWS

Home | Current Version | Previous Version | Text Only | Print | Product List | Glossary On
Versions: 1 2 3 4 5 6 7 8 9 10 11 12 13 14 15 16 17 18 19 20 21 22 23 24 25 26 27 28 29
000
FTUS46 KPDT 220942 AAB
TAFDLS
TAF AMD
KDLS 220942Z 2210/2306 VRB04KT 4SM BR OVC005
     FM221200 08005KT 1 1/2SM -RASN BR OVC020
     FM222000 VRB03KT 4SM BR BKN025 OVC035
     FM230000 VRB03KT 5SM BR SCT030 BKN050=

USA.gov is the U.S. government's official web portal to all federal, state and local government web resources and services.